Nearby METAR Reports

 

CWGT - Sisters Island (Auto)
Distance from station: NE 39km
Updated: 2019-11-21 10:00

 Wind from WSW
Wind: WSW 13 km/h
Temperature: 6°C
Wind Chill: 3°C
Dew Point: 5°C
Humidity: 93%
2019/11/21 18:00 CWGT 211800Z AUTO 24007KT 06/05 RMK AO1 SLP166 T00610051 55003
CWGB - Ballenas Island (Auto)
Distance from station: ENE 47km
Updated: 2019-11-21 10:00

 Wind from WSW
Wind: WSW 9 km/h
Temperature: 6°C
Wind Chill: 4°C
Dew Point: 4°C
Humidity: 87%
2019/11/21 18:00 CWGB 211800Z AUTO 24005KT 06/04 RMK AO1 SLP165 T00610042 56004
CYQQ - CFB Comox
Distance from station: N 55km
Updated: 2019-11-21 10:00
Mostly cloudy
Mostly cloudy
 Wind from calm
Wind: Calm
Temperature: 3°C
Dew Point: 2°C
Humidity: 93%
Barometer: 1016.9 hPa
Clouds: Mostly cloudy
Visibility: 32 km
Cloud details: Few Clouds 183 m
Mostly cloudy 335 m
Mostly cloudy 7620 m
2019/11/21 18:00 CYQQ 211800Z 00000KT 20SM FEW006 BKN011 BKN250 03/02 A3003 RMK SF1SC5CI1 CIG VRB 8-14 SLP171
 
CYPW - Powell River Airport
Distance from station: NNE 69km
Updated: 2019-11-21 10:26
Mostly cloudy
Mostly cloudy
 Wind from varies
Wind: varies 4 km/h
Temperature: 4°C
Dew Point: 4°C
Humidity: 100%
Barometer: 1016.6 hPa
Clouds: Mostly cloudy
Visibility: 24 km
Cloud details: Mostly cloudy 91 m
2019/11/21 18:26 CYPW 211826Z VRB02KT 15SM BKN003 04/04 A3002 RMK SC7 VIS LWR N-E PTCHY SHLW BR OVR E END RWY SLP172
CYCD - Nanaimo Airport
Distance from station: ESE 70km
Updated: 2019-11-21 10:00
Partly cloudy
Partly cloudy
 Wind from W
Wind: W 6 km/h
Temperature: 5°C
Dew Point: 1°C
Humidity: 76%
Barometer: 1016.6 hPa
Clouds: Partly cloudy
Visibility: 32 km
Cloud details: Few Clouds 244 m
Partly cloudy 7315 m
2019/11/21 18:00 CYCD 211800Z 26003KT 20SM FEW008 SCT240 05/01 A3002 RMK SF1CI3 SLP167
CYAZ - Tofino Airport
Distance from station: WSW 73km
Updated: 2019-11-21 10:00
Mostly cloudy
Mostly cloudy
 Wind from ESE
Wind: ESE 7 km/h
Temperature: 7°C
Wind Chill: 6°C
Dew Point: 4°C
Humidity: 81%
Barometer: 1014.6 hPa
Clouds: Mostly cloudy
Visibility: 24 km
Cloud details: Mostly cloudy 7315 m
2019/11/21 18:00 CYAZ 211800Z 12004KT 110V240 15SM BKN240 07/04 A2996 RMK CI5 SLP149
 
CWEL - Entrance Island (Auto)
Distance from station: E 73km
Updated: 2019-11-21 10:00

 Wind from WNW
Wind: WNW 7 km/h
Temperature: 8°C
Wind Chill: 7°C
Dew Point: 6°C
Humidity: 87%
2019/11/21 18:00 CWEL 211800Z AUTO 29004KT 08/06 RMK AO1 SLP164 T00770055 56005
CYBL - Campbell River Airport
Distance from station: NNW 88km
Updated: 2019-11-21 10:00
Mostly cloudy
Mostly cloudy
 Wind from NW
Wind: NW 6 km/h
Temperature: 2°C
Dew Point: 2°C
Humidity: 100%
Barometer: 1016.6 hPa
Clouds: Mostly cloudy
Visibility: 48 km
Cloud details: Few Clouds 152 m
Few Clouds 4877 m
Mostly cloudy 7620 m
2019/11/21 18:00 CYBL 211800Z 31003KT 30SM FEW005 FEW160 BKN250 02/02 A3002 RMK SF1AC1CI3 SLP172
CWKH - Malahat Highway (Auto)
Distance from station: SE 116km
Updated: 2019-11-21 10:00

 
Temperature: 6°C
2019/11/21 18:00 CWKH 211800Z AUTO 06/ RMK AO1 SLP150 T0059 55003
 
CYVR - Vancouver Intl Airport
Distance from station: E 118km
Updated: 2019-11-21 10:00
Few Clouds
Few Clouds
 Wind from S
Wind: S 6 km/h
Temperature: 6°C
Dew Point: 2°C
Humidity: 76%
Barometer: 1016.3 hPa
Clouds: Few Clouds
Visibility: 48 km
Cloud details: Few Clouds 7620 m
2019/11/21 18:00 CYVR 211800Z 17003KT 30SM FEW250 06/02 A3001 RMK CS1 CONTRAILS SLP164
CYYJ - Victoria Intl Airport
Distance from station: ESE 120km
Updated: 2019-11-21 10:00
Few Clouds
Few Clouds
 Wind from W
Wind: W 9 km/h
Temperature: 6°C
Wind Chill: 4°C
Dew Point: 2°C
Humidity: 76%
Barometer: 1016.3 hPa
Clouds: Few Clouds
Visibility: 48 km
Cloud details: Few Clouds 914 m
Few Clouds 6096 m
2019/11/21 18:00 CYYJ 211800Z 27005KT 30SM FEW030 FEW200 06/02 A3001 RMK SC1CC1 SC TR SLP165
CWEB - Estevan Pt. (Auto)
Distance from station: W 129km
Updated: 2019-11-21 10:00

 Wind from SSE
Wind: SSE 6 km/h
Temperature: 5°C
Dew Point: 4°C
Humidity: 93%
2019/11/21 18:00 CWEB 211800Z AUTO 15003KT 05/04 RMK AO1 SLP153 T00460035 55003
 
CWQK - Race Rocks (Auto)
Distance from station: SE 138km
Updated: 2019-11-21 10:00

 Wind from E
Wind: E 15 km/h
Temperature: 7°C
Wind Chill: 4°C
Dew Point: 3°C
Humidity: 76%
2019/11/21 18:00 CWQK 211800Z AUTO 08008KT 07/03 RMK AO1 SLP164 T00700027 55003
CWAE - Whistler
Distance from station: NE 167km
Updated: 2019-11-21 10:00
Few Clouds
Few Clouds
 Wind from calm
Wind: Calm
Temperature: 0°C
Dew Point: -3°C
Humidity: 80%
Barometer: 1015.9 hPa
Clouds: Few Clouds
Visibility: 24 km
Cloud details: Few Clouds 6706 m
2019/11/21 18:00 CWAE 211800Z 00000KT 15SM FEW220 M00/M03 A3000 RMK CI1 CI TR WND ESTD SLP183
CYZT - Port Hardy Airport
Distance from station: NW 244km
Updated: 2019-11-21 10:00
Mostly cloudy
Mostly cloudy
 Wind from ESE
Wind: ESE 6 km/h
Temperature: 7°C
Dew Point: 4°C
Humidity: 81%
Barometer: 1013.5 hPa
Clouds: Mostly cloudy
Visibility: 32 km
Cloud details: Few Clouds 3353 m
Mostly cloudy 6706 m
2019/11/21 18:00 CYZT 211800Z 12003KT 070V190 20SM FEW110 BKN220 07/04 A2993 RMK AC2CI3 SLP139
 
CWRU - Solander Isl (Auto)
Distance from station: WNW 247km
Updated: 2019-11-21 10:00

 Wind from ESE
Wind: ESE 56 km/h, Gust: 67 km/h
Temperature: 9°C
Wind Chill: 4°C
Dew Point: 5°C
Humidity: 76%
2019/11/21 18:00 CWRU 211800Z AUTO 12030G36KT 09/05 RMK AO1 PK WND 11036/1756 SLP112 T00880048 58001